sensor_id;sensor_type;location;lat;lon;timestamp;pressure;altitude;pressure_sealevel;temperature;humidity
69198;BME280;56311;50.298;8.514;2024-03-08T00:00:00;97850.0;;;2.0;69.2
69198;BME280;56311;50.298;8.514;2024-03-08T00:02:00;97840.0;;;2.0;69.2
69198;BME280;56311;50.298;8.514;2024-03-08T00:04:00;97840.0;;;2.0;69.2
69198;BME280;56311;50.298;8.514;2024-03-08T00:06:00;97840.0;;;2.0;69.3
69198;BME280;56311;50.298;8.514;2024-03-08T00:08:01;97840.0;;;2.0;69.4
69198;BME280;56311;50.298;8.514;2024-03-08T00:10:00;97850.0;;;2.0;69.4
69198;BME280;56311;50.298;8.514;2024-03-08T00:12:00;97840.0;;;2.0;69.3
69198;BME280;56311;50.298;8.514;2024-03-08T00:14:00;97840.0;;;1.9;69.4
69198;BME280;56311;50.298;8.514;2024-03-08T00:16:00;97840.0;;;1.9;69.6
69198;BME280;56311;50.298;8.514;2024-03-08T00:18:00;97830.0;;;1.9;69.3
69198;BME280;56311;50.298;8.514;2024-03-08T00:20:00;97840.0;;;1.9;69.2
69198;BME280;56311;50.298;8.514;2024-03-08T00:22:00;97830.0;;;1.9;69.2
69198;BME280;56311;50.298;8.514;2024-03-08T00:24:00;97830.0;;;1.9;69.3
69198;BME280;56311;50.298;8.514;2024-03-08T00:26:00;97830.0;;;1.8;69.6
69198;BME280;56311;50.298;8.514;2024-03-08T00:28:00;97830.0;;;1.8;69.7
69198;BME280;56311;50.298;8.514;2024-03-08T00:30:00;97830.0;;;1.8;69.5
69198;BME280;56311;50.298;8.514;2024-03-08T00:32:00;97830.0;;;1.8;69.5
69198;BME280;56311;50.298;8.514;2024-03-08T00:34:00;97830.0;;;1.8;69.9
69198;BME280;56311;50.298;8.514;2024-03-08T00:36:00;97830.0;;;1.8;70.2
69198;BME280;56311;50.298;8.514;2024-03-08T00:38:00;97830.0;;;1.7;70.3
69198;BME280;56311;50.298;8.514;2024-03-08T00:40:00;97820.0;;;1.7;70.2
69198;BME280;56311;50.298;8.514;2024-03-08T00:42:00;97820.0;;;1.6;70.2
69198;BME280;56311;50.298;8.514;2024-03-08T00:44:00;97820.0;;;1.6;70.6
69198;BME280;56311;50.298;8.514;2024-03-08T00:46:00;97820.0;;;1.5;70.3
69198;BME280;56311;50.298;8.514;2024-03-08T00:48:00;97820.0;;;1.5;70.4
69198;BME280;56311;50.298;8.514;2024-03-08T00:50:00;97820.0;;;1.4;70.9
69198;BME280;56311;50.298;8.514;2024-03-08T00:52:00;97820.0;;;1.4;70.6
69198;BME280;56311;50.298;8.514;2024-03-08T00:54:00;97820.0;;;1.3;70.5
69198;BME280;56311;50.298;8.514;2024-03-08T00:56:00;97810.0;;;1.3;71.9
69198;BME280;56311;50.298;8.514;2024-03-08T00:58:00;97820.0;;;1.2;71.9
69198;BME280;56311;50.298;8.514;2024-03-08T01:00:03;97810.0;;;1.1;72.5
69198;BME280;56311;50.298;8.514;2024-03-08T01:02:00;97810.0;;;1.1;72.4
69198;BME280;56311;50.298;8.514;2024-03-08T01:04:00;97810.0;;;1.1;72.1
69198;BME280;56311;50.298;8.514;2024-03-08T01:06:00;97810.0;;;1.0;72.1
69198;BME280;56311;50.298;8.514;2024-03-08T01:08:00;97800.0;;;1.0;72.1
69198;BME280;56311;50.298;8.514;2024-03-08T01:10:00;97800.0;;;1.0;73.0
69198;BME280;56311;50.298;8.514;2024-03-08T01:12:00;97790.0;;;0.9;73.3
69198;BME280;56311;50.298;8.514;2024-03-08T01:14:00;97790.0;;;0.9;72.9
69198;BME280;56311;50.298;8.514;2024-03-08T01:16:00;97790.0;;;0.8;72.5
69198;BME280;56311;50.298;8.514;2024-03-08T01:18:00;97790.0;;;0.8;72.4
69198;BME280;56311;50.298;8.514;2024-03-08T01:20:00;97780.0;;;0.8;72.3
69198;BME280;56311;50.298;8.514;2024-03-08T01:22:00;97780.0;;;0.8;72.1
69198;BME280;56311;50.298;8.514;2024-03-08T01:24:00;97780.0;;;0.8;71.9
69198;BME280;56311;50.298;8.514;2024-03-08T01:26:00;97780.0;;;0.7;72.0
69198;BME280;56311;50.298;8.514;2024-03-08T01:28:00;97780.0;;;0.7;72.4
69198;BME280;56311;50.298;8.514;2024-03-08T01:30:00;97780.0;;;0.7;72.8
69198;BME280;56311;50.298;8.514;2024-03-08T01:32:00;97770.0;;;0.7;73.0
69198;BME280;56311;50.298;8.514;2024-03-08T01:34:00;97770.0;;;0.7;73.1
69198;BME280;56311;50.298;8.514;2024-03-08T01:36:00;97760.0;;;0.7;73.4
69198;BME280;56311;50.298;8.514;2024-03-08T01:38:00;97760.0;;;0.6;73.3
69198;BME280;56311;50.298;8.514;2024-03-08T01:40:00;97760.0;;;0.6;73.3
69198;BME280;56311;50.298;8.514;2024-03-08T01:42:00;97750.0;;;0.6;73.7
69198;BME280;56311;50.298;8.514;2024-03-08T01:44:00;97750.0;;;0.6;73.5
69198;BME280;56311;50.298;8.514;2024-03-08T01:46:01;97750.0;;;0.6;74.0
69198;BME280;56311;50.298;8.514;2024-03-08T01:48:00;97750.0;;;0.6;74.0
69198;BME280;56311;50.298;8.514;2024-03-08T01:50:01;97740.0;;;0.6;74.5
69198;BME280;56311;50.298;8.514;2024-03-08T01:52:00;97740.0;;;0.5;73.7
69198;BME280;56311;50.298;8.514;2024-03-08T01:54:02;97740.0;;;0.5;73.5
69198;BME280;56311;50.298;8.514;2024-03-08T01:56:01;97740.0;;;0.5;74.0
69198;BME280;56311;50.298;8.514;2024-03-08T01:58:00;97730.0;;;0.4;73.6
69198;BME280;56311;50.298;8.514;2024-03-08T02:00:00;97730.0;;;0.4;73.4
69198;BME280;56311;50.298;8.514;2024-03-08T02:02:01;97730.0;;;0.4;73.5
69198;BME280;56311;50.298;8.514;2024-03-08T02:04:00;97720.0;;;0.4;73.4
69198;BME280;56311;50.298;8.514;2024-03-08T02:06:00;97720.0;;;0.4;73.2
69198;BME280;56311;50.298;8.514;2024-03-08T02:08:00;97720.0;;;0.4;73.4
69198;BME280;56311;50.298;8.514;2024-03-08T02:10:00;97710.0;;;0.4;73.6
69198;BME280;56311;50.298;8.514;2024-03-08T02:12:00;97710.0;;;0.4;73.4
69198;BME280;56311;50.298;8.514;2024-03-08T02:14:00;97710.0;;;0.3;73.2
69198;BME280;56311;50.298;8.514;2024-03-08T02:16:00;97710.0;;;0.3;73.8
69198;BME280;56311;50.298;8.514;2024-03-08T02:18:00;97710.0;;;0.3;73.8
69198;BME280;56311;50.298;8.514;2024-03-08T02:20:00;97710.0;;;0.3;74.4
69198;BME280;56311;50.298;8.514;2024-03-08T02:22:00;97700.0;;;0.3;74.1
69198;BME280;56311;50.298;8.514;2024-03-08T02:24:00;97710.0;;;0.3;73.9
69198;BME280;56311;50.298;8.514;2024-03-08T02:26:00;97710.0;;;0.3;73.9
69198;BME280;56311;50.298;8.514;2024-03-08T02:28:00;97700.0;;;0.2;73.6
69198;BME280;56311;50.298;8.514;2024-03-08T02:30:00;97700.0;;;0.3;73.4
69198;BME280;56311;50.298;8.514;2024-03-08T02:32:00;97700.0;;;0.3;73.5
69198;BME280;56311;50.298;8.514;2024-03-08T02:34:00;97700.0;;;0.2;74.0
69198;BME280;56311;50.298;8.514;2024-03-08T02:36:00;97700.0;;;0.2;73.9
69198;BME280;56311;50.298;8.514;2024-03-08T02:38:00;97700.0;;;0.2;73.7
69198;BME280;56311;50.298;8.514;2024-03-08T02:40:00;97700.0;;;0.2;73.4
69198;BME280;56311;50.298;8.514;2024-03-08T02:42:00;97690.0;;;0.3;73.2
69198;BME280;56311;50.298;8.514;2024-03-08T02:44:00;97690.0;;;0.3;72.9
69198;BME280;56311;50.298;8.514;2024-03-08T02:46:00;97690.0;;;0.3;72.6
69198;BME280;56311;50.298;8.514;2024-03-08T02:48:00;97690.0;;;0.3;72.7
69198;BME280;56311;50.298;8.514;2024-03-08T02:50:00;97680.0;;;0.3;72.9
69198;BME280;56311;50.298;8.514;2024-03-08T02:52:00;97690.0;;;0.3;73.6
69198;BME280;56311;50.298;8.514;2024-03-08T02:54:00;97680.0;;;0.4;74.1
69198;BME280;56311;50.298;8.514;2024-03-08T02:56:00;97680.0;;;0.3;73.9
69198;BME280;56311;50.298;8.514;2024-03-08T02:58:00;97680.0;;;0.4;73.7
69198;BME280;56311;50.298;8.514;2024-03-08T03:00:00;97670.0;;;0.4;73.9
69198;BME280;56311;50.298;8.514;2024-03-08T03:02:00;97680.0;;;0.4;74.8
69198;BME280;56311;50.298;8.514;2024-03-08T03:04:00;97680.0;;;0.4;74.9
69198;BME280;56311;50.298;8.514;2024-03-08T03:06:00;97670.0;;;0.5;74.7
69198;BME280;56311;50.298;8.514;2024-03-08T03:08:01;97680.0;;;0.5;75.0
69198;BME280;56311;50.298;8.514;2024-03-08T03:10:00;97670.0;;;0.5;74.8
69198;BME280;56311;50.298;8.514;2024-03-08T03:12:00;97670.0;;;0.5;75.0
69198;BME280;56311;50.298;8.514;2024-03-08T03:14:00;97660.0;;;0.5;74.7
69198;BME280;56311;50.298;8.514;2024-03-08T03:16:00;97660.0;;;0.6;74.8
69198;BME280;56311;50.298;8.514;2024-03-08T03:18:00;97660.0;;;0.5;74.3
69198;BME280;56311;50.298;8.514;2024-03-08T03:20:00;97660.0;;;0.5;74.9
69198;BME280;56311;50.298;8.514;2024-03-08T03:22:02;97660.0;;;0.5;75.5
69198;BME280;56311;50.298;8.514;2024-03-08T03:24:00;97660.0;;;0.5;75.3
69198;BME280;56311;50.298;8.514;2024-03-08T03:26:00;97650.0;;;0.5;75.8
69198;BME280;56311;50.298;8.514;2024-03-08T03:28:00;97650.0;;;0.5;75.6
69198;BME280;56311;50.298;8.514;2024-03-08T03:30:00;97660.0;;;0.5;76.2
69198;BME280;56311;50.298;8.514;2024-03-08T03:32:00;97660.0;;;0.5;76.1
69198;BME280;56311;50.298;8.514;2024-03-08T03:34:00;97660.0;;;0.6;75.2
69198;BME280;56311;50.298;8.514;2024-03-08T03:36:00;97650.0;;;0.5;75.7
69198;BME280;56311;50.298;8.514;2024-03-08T03:38:00;97650.0;;;0.6;75.9
69198;BME280;56311;50.298;8.514;2024-03-08T03:40:00;97650.0;;;0.6;76.1
69198;BME280;56311;50.298;8.514;2024-03-08T03:42:00;97650.0;;;0.6;76.5
69198;BME280;56311;50.298;8.514;2024-03-08T03:44:00;97640.0;;;0.6;75.6
69198;BME280;56311;50.298;8.514;2024-03-08T03:46:00;97640.0;;;0.7;75.5
69198;BME280;56311;50.298;8.514;2024-03-08T03:48:02;97640.0;;;0.7;75.4
69198;BME280;56311;50.298;8.514;2024-03-08T03:50:00;97640.0;;;0.7;75.6
69198;BME280;56311;50.298;8.514;2024-03-08T03:52:00;97640.0;;;0.7;75.7
69198;BME280;56311;50.298;8.514;2024-03-08T03:54:00;97640.0;;;0.7;75.7
69198;BME280;56311;50.298;8.514;2024-03-08T03:56:00;97640.0;;;0.7;75.8
69198;BME280;56311;50.298;8.514;2024-03-08T03:58:00;97650.0;;;0.6;77.0
69198;BME280;56311;50.298;8.514;2024-03-08T04:00:00;97640.0;;;0.7;76.5
69198;BME280;56311;50.298;8.514;2024-03-08T04:02:00;97640.0;;;0.7;76.7
69198;BME280;56311;50.298;8.514;2024-03-08T04:04:00;97640.0;;;0.7;76.9
69198;BME280;56311;50.298;8.514;2024-03-08T04:06:01;97640.0;;;0.7;76.9
69198;BME280;56311;50.298;8.514;2024-03-08T04:08:00;97630.0;;;0.7;76.7
69198;BME280;56311;50.298;8.514;2024-03-08T04:10:01;97630.0;;;0.7;76.6
69198;BME280;56311;50.298;8.514;2024-03-08T04:12:00;97630.0;;;0.7;76.3
69198;BME280;56311;50.298;8.514;2024-03-08T04:14:00;97630.0;;;0.7;76.2
69198;BME280;56311;50.298;8.514;2024-03-08T04:16:00;97630.0;;;0.7;76.0
69198;BME280;56311;50.298;8.514;2024-03-08T04:18:00;97630.0;;;0.7;76.0
69198;BME280;56311;50.298;8.514;2024-03-08T04:20:00;97630.0;;;0.7;75.9
69198;BME280;56311;50.298;8.514;2024-03-08T04:22:00;97630.0;;;0.7;76.1
69198;BME280;56311;50.298;8.514;2024-03-08T04:24:00;97630.0;;;0.6;76.3
69198;BME280;56311;50.298;8.514;2024-03-08T04:26:00;97630.0;;;0.6;76.7
69198;BME280;56311;50.298;8.514;2024-03-08T04:28:00;97630.0;;;0.6;76.6
69198;BME280;56311;50.298;8.514;2024-03-08T04:30:00;97630.0;;;0.6;76.8
69198;BME280;56311;50.298;8.514;2024-03-08T04:32:02;97630.0;;;0.6;76.7
69198;BME280;56311;50.298;8.514;2024-03-08T04:34:00;97630.0;;;0.5;77.2
69198;BME280;56311;50.298;8.514;2024-03-08T04:36:00;97630.0;;;0.5;77.6
69198;BME280;56311;50.298;8.514;2024-03-08T04:38:00;97630.0;;;0.5;76.9
69198;BME280;56311;50.298;8.514;2024-03-08T04:40:00;97620.0;;;0.5;77.1
69198;BME280;56311;50.298;8.514;2024-03-08T04:42:02;97620.0;;;0.5;77.6
69198;BME280;56311;50.298;8.514;2024-03-08T04:44:00;97610.0;;;0.5;77.4
69198;BME280;56311;50.298;8.514;2024-03-08T04:46:00;97620.0;;;0.5;77.8
69198;BME280;56311;50.298;8.514;2024-03-08T04:48:00;97620.0;;;0.4;77.6
69198;BME280;56311;50.298;8.514;2024-03-08T04:50:00;97610.0;;;0.4;77.6
69198;BME280;56311;50.298;8.514;2024-03-08T04:52:00;97620.0;;;0.5;78.1
69198;BME280;56311;50.298;8.514;2024-03-08T04:54:00;97610.0;;;0.4;77.8
69198;BME280;56311;50.298;8.514;2024-03-08T04:56:00;97610.0;;;0.4;77.5
69198;BME280;56311;50.298;8.514;2024-03-08T04:58:00;97610.0;;;0.4;77.7
69198;BME280;56311;50.298;8.514;2024-03-08T05:00:00;97610.0;;;0.4;78.3
69198;BME280;56311;50.298;8.514;2024-03-08T05:02:00;97610.0;;;0.4;78.0
69198;BME280;56311;50.298;8.514;2024-03-08T05:04:00;97610.0;;;0.4;78.0
69198;BME280;56311;50.298;8.514;2024-03-08T05:06:00;97610.0;;;0.4;77.7
69198;BME280;56311;50.298;8.514;2024-03-08T05:08:01;97610.0;;;0.4;78.3
69198;BME280;56311;50.298;8.514;2024-03-08T05:10:00;97600.0;;;0.4;78.2
69198;BME280;56311;50.298;8.514;2024-03-08T05:12:00;97600.0;;;0.4;78.2
69198;BME280;56311;50.298;8.514;2024-03-08T05:14:00;97610.0;;;0.4;78.4
69198;BME280;56311;50.298;8.514;2024-03-08T05:16:00;97600.0;;;0.4;78.6
69198;BME280;56311;50.298;8.514;2024-03-08T05:18:00;97610.0;;;0.4;78.8
69198;BME280;56311;50.298;8.514;2024-03-08T05:20:00;97600.0;;;0.4;79.0
69198;BME280;56311;50.298;8.514;2024-03-08T05:22:01;97600.0;;;0.5;78.5
69198;BME280;56311;50.298;8.514;2024-03-08T05:24:00;97610.0;;;0.5;78.7
69198;BME280;56311;50.298;8.514;2024-03-08T05:26:00;97610.0;;;0.5;78.5
69198;BME280;56311;50.298;8.514;2024-03-08T05:28:00;97600.0;;;0.5;78.5
69198;BME280;56311;50.298;8.514;2024-03-08T05:30:00;97600.0;;;0.4;78.5
69198;BME280;56311;50.298;8.514;2024-03-08T05:32:00;97610.0;;;0.4;78.1
69198;BME280;56311;50.298;8.514;2024-03-08T05:34:00;97600.0;;;0.4;78.1
69198;BME280;56311;50.298;8.514;2024-03-08T05:36:00;97600.0;;;0.4;78.6
69198;BME280;56311;50.298;8.514;2024-03-08T05:38:00;97610.0;;;0.4;78.4
69198;BME280;56311;50.298;8.514;2024-03-08T05:40:00;97610.0;;;0.4;78.5
69198;BME280;56311;50.298;8.514;2024-03-08T05:42:00;97610.0;;;0.4;78.6
69198;BME280;56311;50.298;8.514;2024-03-08T05:44:00;97600.0;;;0.4;78.5
69198;BME280;56311;50.298;8.514;2024-03-08T05:46:00;97600.0;;;0.4;78.8
69198;BME280;56311;50.298;8.514;2024-03-08T05:48:00;97610.0;;;0.3;78.8
69198;BME280;56311;50.298;8.514;2024-03-08T05:50:00;97610.0;;;0.3;79.2
69198;BME280;56311;50.298;8.514;2024-03-08T05:52:00;97600.0;;;0.3;78.5
69198;BME280;56311;50.298;8.514;2024-03-08T05:54:00;97600.0;;;0.3;78.6
69198;BME280;56311;50.298;8.514;2024-03-08T05:56:00;97600.0;;;0.3;78.7
69198;BME280;56311;50.298;8.514;2024-03-08T05:58:00;97600.0;;;0.4;78.7
69198;BME280;56311;50.298;8.514;2024-03-08T06:00:00;97590.0;;;0.3;79.0
69198;BME280;56311;50.298;8.514;2024-03-08T06:02:00;97590.0;;;0.3;79.1
69198;BME280;56311;50.298;8.514;2024-03-08T06:04:00;97590.0;;;0.3;79.0
69198;BME280;56311;50.298;8.514;2024-03-08T06:06:00;97590.0;;;0.3;78.7
69198;BME280;56311;50.298;8.514;2024-03-08T06:08:00;97600.0;;;0.3;78.4
69198;BME280;56311;50.298;8.514;2024-03-08T06:10:00;97590.0;;;0.3;78.8
69198;BME280;56311;50.298;8.514;2024-03-08T06:12:00;97590.0;;;0.3;78.9
69198;BME280;56311;50.298;8.514;2024-03-08T06:14:00;97590.0;;;0.3;79.0
69198;BME280;56311;50.298;8.514;2024-03-08T06:16:00;97590.0;;;0.3;78.6
69198;BME280;56311;50.298;8.514;2024-03-08T06:18:00;97590.0;;;0.3;78.8
69198;BME280;56311;50.298;8.514;2024-03-08T06:20:00;97590.0;;;0.3;78.5
69198;BME280;56311;50.298;8.514;2024-03-08T06:22:00;97590.0;;;0.3;78.4
69198;BME280;56311;50.298;8.514;2024-03-08T06:24:00;97590.0;;;0.3;78.6
69198;BME280;56311;50.298;8.514;2024-03-08T06:26:00;97590.0;;;0.3;77.9
69198;BME280;56311;50.298;8.514;2024-03-08T06:28:00;97590.0;;;0.3;78.4
69198;BME280;56311;50.298;8.514;2024-03-08T06:30:00;97590.0;;;0.3;79.0
69198;BME280;56311;50.298;8.514;2024-03-08T06:32:00;97590.0;;;0.3;79.4
69198;BME280;56311;50.298;8.514;2024-03-08T06:34:00;97590.0;;;0.3;79.8
69198;BME280;56311;50.298;8.514;2024-03-08T06:36:00;97590.0;;;0.3;79.6
69198;BME280;56311;50.298;8.514;2024-03-08T06:38:00;97580.0;;;0.4;79.6
69198;BME280;56311;50.298;8.514;2024-03-08T06:40:00;97590.0;;;0.4;79.4
69198;BME280;56311;50.298;8.514;2024-03-08T06:42:00;97590.0;;;0.4;79.5
69198;BME280;56311;50.298;8.514;2024-03-08T06:44:00;97590.0;;;0.5;79.1
69198;BME280;56311;50.298;8.514;2024-03-08T06:46:00;97590.0;;;0.5;79.1
69198;BME280;56311;50.298;8.514;2024-03-08T06:48:00;97580.0;;;0.5;79.1
69198;BME280;56311;50.298;8.514;2024-03-08T06:50:00;97590.0;;;0.6;79.5
69198;BME280;56311;50.298;8.514;2024-03-08T06:52:00;97590.0;;;0.6;79.2
69198;BME280;56311;50.298;8.514;2024-03-08T06:54:01;97590.0;;;0.7;79.3
69198;BME280;56311;50.298;8.514;2024-03-08T06:56:00;97580.0;;;0.7;79.2
69198;BME280;56311;50.298;8.514;2024-03-08T06:58:00;97580.0;;;0.7;78.7
69198;BME280;56311;50.298;8.514;2024-03-08T07:00:00;97590.0;;;0.8;78.7
69198;BME280;56311;50.298;8.514;2024-03-08T07:02:00;97580.0;;;0.8;79.0
69198;BME280;56311;50.298;8.514;2024-03-08T07:04:00;97580.0;;;0.9;78.3
69198;BME280;56311;50.298;8.514;2024-03-08T07:06:00;97590.0;;;1.0;78.3
69198;BME280;56311;50.298;8.514;2024-03-08T07:08:00;97590.0;;;1.0;78.4
69198;BME280;56311;50.298;8.514;2024-03-08T07:10:01;97580.0;;;1.1;78.1
69198;BME280;56311;50.298;8.514;2024-03-08T07:12:00;97580.0;;;1.1;78.3
69198;BME280;56311;50.298;8.514;2024-03-08T07:14:00;97580.0;;;1.2;77.9
69198;BME280;56311;50.298;8.514;2024-03-08T07:16:00;97580.0;;;1.2;77.9
69198;BME280;56311;50.298;8.514;2024-03-08T07:18:00;97580.0;;;1.3;77.9
69198;BME280;56311;50.298;8.514;2024-03-08T07:20:00;97580.0;;;1.4;77.6
69198;BME280;56311;50.298;8.514;2024-03-08T07:22:01;97580.0;;;1.4;77.2
69198;BME280;56311;50.298;8.514;2024-03-08T07:24:00;97570.0;;;1.5;77.1
69198;BME280;56311;50.298;8.514;2024-03-08T07:26:00;97580.0;;;1.5;77.0
69198;BME280;56311;50.298;8.514;2024-03-08T07:28:00;97570.0;;;1.6;76.6
69198;BME280;56311;50.298;8.514;2024-03-08T07:30:00;97570.0;;;1.7;76.1
69198;BME280;56311;50.298;8.514;2024-03-08T07:32:00;97560.0;;;1.7;75.8
69198;BME280;56311;50.298;8.514;2024-03-08T07:34:00;97560.0;;;1.8;75.4
69198;BME280;56311;50.298;8.514;2024-03-08T07:36:00;97560.0;;;1.9;75.4
69198;BME280;56311;50.298;8.514;2024-03-08T07:38:00;97560.0;;;1.9;75.2
69198;BME280;56311;50.298;8.514;2024-03-08T07:40:00;97570.0;;;2.0;75.2
69198;BME280;56311;50.298;8.514;2024-03-08T07:42:00;97560.0;;;2.1;75.0
69198;BME280;56311;50.298;8.514;2024-03-08T07:44:00;97560.0;;;2.1;74.9
69198;BME280;56311;50.298;8.514;2024-03-08T07:46:00;97560.0;;;2.2;74.5
69198;BME280;56311;50.298;8.514;2024-03-08T07:48:00;97560.0;;;2.2;73.9
69198;BME280;56311;50.298;8.514;2024-03-08T07:50:00;97560.0;;;2.3;73.1
69198;BME280;56311;50.298;8.514;2024-03-08T07:52:00;97550.0;;;2.4;73.6
69198;BME280;56311;50.298;8.514;2024-03-08T07:54:00;97560.0;;;2.4;73.5
69198;BME280;56311;50.298;8.514;2024-03-08T07:56:00;97550.0;;;2.4;73.2
69198;BME280;56311;50.298;8.514;2024-03-08T07:58:01;97550.0;;;2.5;73.6
69198;BME280;56311;50.298;8.514;2024-03-08T08:00:00;97550.0;;;2.7;71.6
69198;BME280;56311;50.298;8.514;2024-03-08T08:02:00;97550.0;;;2.9;71.1
69198;BME280;56311;50.298;8.514;2024-03-08T08:04:00;97550.0;;;2.9;71.2
69198;BME280;56311;50.298;8.514;2024-03-08T08:06:00;97550.0;;;2.9;71.5
69198;BME280;56311;50.298;8.514;2024-03-08T08:08:00;97540.0;;;2.9;71.3
69198;BME280;56311;50.298;8.514;2024-03-08T08:10:01;97550.0;;;2.9;71.5
69198;BME280;56311;50.298;8.514;2024-03-08T08:12:00;97550.0;;;3.0;70.3
69198;BME280;56311;50.298;8.514;2024-03-08T08:14:00;97540.0;;;3.1;70.3
69198;BME280;56311;50.298;8.514;2024-03-08T08:16:00;97540.0;;;3.1;70.2
69198;BME280;56311;50.298;8.514;2024-03-08T08:18:01;97540.0;;;3.2;69.9
69198;BME280;56311;50.298;8.514;2024-03-08T08:20:00;97530.0;;;3.3;69.5
69198;BME280;56311;50.298;8.514;2024-03-08T08:22:00;97530.0;;;3.3;69.8
69198;BME280;56311;50.298;8.514;2024-03-08T08:24:00;97530.0;;;3.3;70.0
69198;BME280;56311;50.298;8.514;2024-03-08T08:26:00;97530.0;;;3.4;69.3
69198;BME280;56311;50.298;8.514;2024-03-08T08:28:00;97520.0;;;3.4;68.6
69198;BME280;56311;50.298;8.514;2024-03-08T08:30:00;97520.0;;;3.6;69.2
69198;BME280;56311;50.298;8.514;2024-03-08T08:32:00;97520.0;;;3.7;68.8
69198;BME280;56311;50.298;8.514;2024-03-08T08:34:00;97520.0;;;3.7;69.3
69198;BME280;56311;50.298;8.514;2024-03-08T08:36:00;97520.0;;;3.8;69.7
69198;BME280;56311;50.298;8.514;2024-03-08T08:38:00;97510.0;;;3.8;68.9
69198;BME280;56311;50.298;8.514;2024-03-08T08:40:00;97510.0;;;3.9;68.1
69198;BME280;56311;50.298;8.514;2024-03-08T08:42:00;97510.0;;;4.0;68.7
69198;BME280;56311;50.298;8.514;2024-03-08T08:44:00;97510.0;;;4.0;68.1
69198;BME280;56311;50.298;8.514;2024-03-08T08:46:00;97510.0;;;4.1;67.9
69198;BME280;56311;50.298;8.514;2024-03-08T08:48:00;97500.0;;;4.1;68.0
69198;BME280;56311;50.298;8.514;2024-03-08T08:50:00;97500.0;;;4.1;67.8
69198;BME280;56311;50.298;8.514;2024-03-08T08:52:00;97500.0;;;4.2;67.2
69198;BME280;56311;50.298;8.514;2024-03-08T08:54:00;97500.0;;;4.3;67.6
69198;BME280;56311;50.298;8.514;2024-03-08T08:56:00;97490.0;;;4.4;67.2
69198;BME280;56311;50.298;8.514;2024-03-08T08:58:00;97490.0;;;4.5;66.4
69198;BME280;56311;50.298;8.514;2024-03-08T09:00:00;97490.0;;;4.6;65.7
69198;BME280;56311;50.298;8.514;2024-03-08T09:02:00;97490.0;;;4.7;65.6
69198;BME280;56311;50.298;8.514;2024-03-08T09:04:00;97490.0;;;4.7;65.4
69198;BME280;56311;50.298;8.514;2024-03-08T09:06:00;97490.0;;;4.8;66.1
69198;BME280;56311;50.298;8.514;2024-03-08T09:08:00;97490.0;;;4.9;65.7
69198;BME280;56311;50.298;8.514;2024-03-08T09:10:01;97490.0;;;4.9;64.9
69198;BME280;56311;50.298;8.514;2024-03-08T09:12:00;97480.0;;;4.9;65.3
69198;BME280;56311;50.298;8.514;2024-03-08T09:14:00;97480.0;;;5.1;64.8
69198;BME280;56311;50.298;8.514;2024-03-08T09:16:00;97480.0;;;5.1;63.8
69198;BME280;56311;50.298;8.514;2024-03-08T09:18:00;97480.0;;;5.2;64.6
69198;BME280;56311;50.298;8.514;2024-03-08T09:20:00;97480.0;;;5.4;63.4
69198;BME280;56311;50.298;8.514;2024-03-08T09:22:00;97470.0;;;5.6;63.0
69198;BME280;56311;50.298;8.514;2024-03-08T09:24:00;97470.0;;;5.5;63.0
69198;BME280;56311;50.298;8.514;2024-03-08T09:26:00;97460.0;;;5.5;63.5
69198;BME280;56311;50.298;8.514;2024-03-08T09:28:00;97460.0;;;5.5;62.6
69198;BME280;56311;50.298;8.514;2024-03-08T09:30:00;97460.0;;;5.6;63.0
69198;BME280;56311;50.298;8.514;2024-03-08T09:32:00;97450.0;;;5.7;62.2
69198;BME280;56311;50.298;8.514;2024-03-08T09:34:00;97450.0;;;5.7;62.8
69198;BME280;56311;50.298;8.514;2024-03-08T09:36:00;97450.0;;;5.8;61.7
69198;BME280;56311;50.298;8.514;2024-03-08T09:38:00;97440.0;;;5.8;62.1
69198;BME280;56311;50.298;8.514;2024-03-08T09:40:00;97440.0;;;5.8;61.9
69198;BME280;56311;50.298;8.514;2024-03-08T09:42:00;97430.0;;;5.8;61.1
69198;BME280;56311;50.298;8.514;2024-03-08T09:44:00;97440.0;;;5.9;61.6
69198;BME280;56311;50.298;8.514;2024-03-08T09:46:00;97430.0;;;6.0;61.0
69198;BME280;56311;50.298;8.514;2024-03-08T09:48:01;97430.0;;;6.0;61.0
69198;BME280;56311;50.298;8.514;2024-03-08T09:50:00;97420.0;;;5.9;61.3
69198;BME280;56311;50.298;8.514;2024-03-08T09:52:00;97420.0;;;5.9;61.0
69198;BME280;56311;50.298;8.514;2024-03-08T09:54:00;97420.0;;;5.9;60.9
69198;BME280;56311;50.298;8.514;2024-03-08T09:56:00;97420.0;;;6.0;60.5
69198;BME280;56311;50.298;8.514;2024-03-08T09:58:05;97410.0;;;6.1;60.4
69198;BME280;56311;50.298;8.514;2024-03-08T10:00:00;97410.0;;;6.1;60.0
69198;BME280;56311;50.298;8.514;2024-03-08T10:02:00;97400.0;;;6.2;59.4
69198;BME280;56311;50.298;8.514;2024-03-08T10:04:02;97400.0;;;6.2;59.3
69198;BME280;56311;50.298;8.514;2024-03-08T10:06:02;97400.0;;;6.3;60.3
69198;BME280;56311;50.298;8.514;2024-03-08T10:08:00;97400.0;;;6.3;58.7
69198;BME280;56311;50.298;8.514;2024-03-08T10:10:00;97400.0;;;6.4;58.8
69198;BME280;56311;50.298;8.514;2024-03-08T10:12:02;97400.0;;;6.5;58.7
69198;BME280;56311;50.298;8.514;2024-03-08T10:14:00;97390.0;;;6.6;57.9
69198;BME280;56311;50.298;8.514;2024-03-08T10:16:00;97390.0;;;6.6;58.1
69198;BME280;56311;50.298;8.514;2024-03-08T10:18:00;97390.0;;;6.7;58.4
69198;BME280;56311;50.298;8.514;2024-03-08T10:20:00;97400.0;;;6.9;57.6
69198;BME280;56311;50.298;8.514;2024-03-08T10:22:00;97390.0;;;6.8;58.0
69198;BME280;56311;50.298;8.514;2024-03-08T10:24:02;97380.0;;;6.7;57.6
69198;BME280;56311;50.298;8.514;2024-03-08T10:28:03;97370.0;;;6.6;57.7
69198;BME280;56311;50.298;8.514;2024-03-08T10:30:02;97370.0;;;6.6;57.9
69198;BME280;56311;50.298;8.514;2024-03-08T10:32:01;97370.0;;;6.6;57.8
69198;BME280;56311;50.298;8.514;2024-03-08T10:34:00;97370.0;;;6.5;58.3
69198;BME280;56311;50.298;8.514;2024-03-08T10:36:02;97370.0;;;6.5;57.9
69198;BME280;56311;50.298;8.514;2024-03-08T10:38:00;97360.0;;;6.6;57.6
69198;BME280;56311;50.298;8.514;2024-03-08T10:40:03;97370.0;;;6.7;57.3
69198;BME280;56311;50.298;8.514;2024-03-08T10:42:03;97360.0;;;6.9;56.7
69198;BME280;56311;50.298;8.514;2024-03-08T10:44:10;97370.0;;;7.1;56.2
69198;BME280;56311;50.298;8.514;2024-03-08T10:46:06;97360.0;;;7.0;57.1
69198;BME280;56311;50.298;8.514;2024-03-08T10:48:12;97360.0;;;6.7;56.4
69198;BME280;56311;50.298;8.514;2024-03-08T10:50:08;97360.0;;;6.7;56.9
69198;BME280;56311;50.298;8.514;2024-03-08T10:52:02;97360.0;;;6.7;57.0
69198;BME280;56311;50.298;8.514;2024-03-08T10:54:01;97360.0;;;6.7;57.0
69198;BME280;56311;50.298;8.514;2024-03-08T10:56:00;97350.0;;;6.7;57.4
69198;BME280;56311;50.298;8.514;2024-03-08T10:58:00;97350.0;;;6.7;57.3
69198;BME280;56311;50.298;8.514;2024-03-08T11:00:02;97350.0;;;6.5;57.6
69198;BME280;56311;50.298;8.514;2024-03-08T11:02:01;97350.0;;;6.6;57.5
69198;BME280;56311;50.298;8.514;2024-03-08T11:04:03;97350.0;;;6.9;57.8
69198;BME280;56311;50.298;8.514;2024-03-08T11:06:01;97340.0;;;7.0;56.3
69198;BME280;56311;50.298;8.514;2024-03-08T11:08:00;97340.0;;;7.0;55.9
69198;BME280;56311;50.298;8.514;2024-03-08T11:10:02;97340.0;;;7.0;56.9
69198;BME280;56311;50.298;8.514;2024-03-08T11:14:01;97330.0;;;7.5;55.2